sensor_id;sensor_type;location;lat;lon;timestamp;pressure;altitude;pressure_sealevel;temperature;humidity
70445;BME280;57902;49.638;11.070;2023-07-02T00:00:05;97489.94;;;18.24;87.81
70445;BME280;57902;49.638;11.070;2023-07-02T00:02:32;97495.16;;;18.24;87.59
70445;BME280;57902;49.638;11.070;2023-07-02T00:05:00;97491.84;;;18.22;87.96
70445;BME280;57902;49.638;11.070;2023-07-02T00:07:26;97498.13;;;18.19;88.58
70445;BME280;57902;49.638;11.070;2023-07-02T00:09:53;97494.66;;;18.19;89.54
70445;BME280;57902;49.638;11.070;2023-07-02T00:12:20;97488.28;;;18.23;87.83
70445;BME280;57902;49.638;11.070;2023-07-02T00:14:46;97491.84;;;18.22;87.92
70445;BME280;57902;49.638;11.070;2023-07-02T00:17:13;97492.03;;;18.19;88.70
70445;BME280;57902;49.638;11.070;2023-07-02T00:19:40;97495.72;;;18.16;89.27
70445;BME280;57902;49.638;11.070;2023-07-02T00:22:08;97498.13;;;18.19;88.20
70445;BME280;57902;49.638;11.070;2023-07-02T00:24:35;97493.72;;;18.20;89.10
70445;BME280;57902;49.638;11.070;2023-07-02T00:27:03;97497.25;;;18.19;89.14
70445;BME280;57902;49.638;11.070;2023-07-02T00:29:30;97492.84;;;18.08;90.14
70445;BME280;57902;49.638;11.070;2023-07-02T00:31:56;97491.91;;;18.09;89.55
70445;BME280;57902;49.638;11.070;2023-07-02T00:34:23;97498.63;;;18.00;91.01
70445;BME280;57902;49.638;11.070;2023-07-02T00:36:49;97488.66;;;17.94;91.00
70445;BME280;57902;49.638;11.070;2023-07-02T00:39:16;97495.91;;;17.89;91.51
70445;BME280;57902;49.638;11.070;2023-07-02T00:41:44;97496.38;;;17.83;92.75
70445;BME280;57902;49.638;11.070;2023-07-02T00:44:13;97492.66;;;17.74;93.73
70445;BME280;57902;49.638;11.070;2023-07-02T00:46:40;97497.84;;;17.74;93.69
70445;BME280;57902;49.638;11.070;2023-07-02T00:49:08;97495.97;;;17.76;93.49
70445;BME280;57902;49.638;11.070;2023-07-02T00:51:35;97498.63;;;17.63;95.01
70445;BME280;57902;49.638;11.070;2023-07-02T00:54:03;97502.41;;;17.59;95.50
70445;BME280;57902;49.638;11.070;2023-07-02T00:56:30;97507.31;;;17.51;96.46
70445;BME280;57902;49.638;11.070;2023-07-02T00:58:56;97496.06;;;17.51;97.27
70445;BME280;57902;49.638;11.070;2023-07-02T01:01:26;97488.47;;;17.47;97.41
70445;BME280;57902;49.638;11.070;2023-07-02T01:04:03;97499.00;;;17.46;97.31
70445;BME280;57902;49.638;11.070;2023-07-02T01:06:32;97504.41;;;17.43;97.89
70445;BME280;57902;49.638;11.070;2023-07-02T01:09:01;97514.00;;;17.42;99.93
70445;BME280;57902;49.638;11.070;2023-07-02T01:11:50;97511.38;;;17.42;98.76
70445;BME280;57902;49.638;11.070;2023-07-02T01:16:48;97517.72;;;17.51;98.05
70445;BME280;57902;49.638;11.070;2023-07-02T01:19:54;97516.56;;;17.55;98.12
70445;BME280;57902;49.638;11.070;2023-07-02T01:22:27;97520.00;;;17.56;98.98
70445;BME280;57902;49.638;11.070;2023-07-02T01:24:54;97516.47;;;17.57;99.32
70445;BME280;57902;49.638;11.070;2023-07-02T01:27:21;97520.63;;;17.59;97.90
70445;BME280;57902;49.638;11.070;2023-07-02T01:29:52;97518.94;;;17.71;95.76
70445;BME280;57902;49.638;11.070;2023-07-02T01:32:18;97519.59;;;17.62;96.55
70445;BME280;57902;49.638;11.070;2023-07-02T01:34:45;97524.19;;;17.58;97.66
70445;BME280;57902;49.638;11.070;2023-07-02T01:37:16;97525.84;;;17.59;96.95
70445;BME280;57902;49.638;11.070;2023-07-02T01:39:43;97531.78;;;17.61;96.73
70445;BME280;57902;49.638;11.070;2023-07-02T01:42:15;97524.63;;;17.52;97.13
70445;BME280;57902;49.638;11.070;2023-07-02T01:44:47;97535.75;;;17.54;97.37
70445;BME280;57902;49.638;11.070;2023-07-02T01:47:14;97531.38;;;17.55;97.20
70445;BME280;57902;49.638;11.070;2023-07-02T01:49:42;97534.28;;;17.50;96.85
70445;BME280;57902;49.638;11.070;2023-07-02T01:52:09;97530.97;;;17.48;96.95
70445;BME280;57902;49.638;11.070;2023-07-02T01:54:35;97534.22;;;17.52;96.13
70445;BME280;57902;49.638;11.070;2023-07-02T01:57:03;97531.59;;;17.52;95.42
70445;BME280;57902;49.638;11.070;2023-07-02T01:59:30;97525.25;;;17.43;96.74
70445;BME280;57902;49.638;11.070;2023-07-02T02:01:56;97537.75;;;17.38;97.09
70445;BME280;57902;49.638;11.070;2023-07-02T02:04:23;97535.56;;;17.44;96.02
70445;BME280;57902;49.638;11.070;2023-07-02T02:06:50;97537.06;;;17.36;96.39
70445;BME280;57902;49.638;11.070;2023-07-02T02:09:16;97544.56;;;17.27;97.24
70445;BME280;57902;49.638;11.070;2023-07-02T02:11:47;97542.06;;;17.26;97.30
70445;BME280;57902;49.638;11.070;2023-07-02T02:14:14;97543.84;;;17.25;96.96
70445;BME280;57902;49.638;11.070;2023-07-02T02:16:40;97545.91;;;17.20;97.04
70445;BME280;57902;49.638;11.070;2023-07-02T02:19:08;97534.44;;;17.23;95.99
70445;BME280;57902;49.638;11.070;2023-07-02T02:21:35;97540.69;;;17.20;97.07
70445;BME280;57902;49.638;11.070;2023-07-02T02:24:02;97546.53;;;17.11;96.90
70445;BME280;57902;49.638;11.070;2023-07-02T02:26:28;97551.31;;;17.04;97.73
70445;BME280;57902;49.638;11.070;2023-07-02T02:28:54;97550.38;;;17.05;96.99
70445;BME280;57902;49.638;11.070;2023-07-02T02:31:21;97547.91;;;17.04;96.42
70445;BME280;57902;49.638;11.070;2023-07-02T02:33:48;97547.25;;;17.00;96.49
70445;BME280;57902;49.638;11.070;2023-07-02T02:36:14;97540.81;;;16.93;97.21
70445;BME280;57902;49.638;11.070;2023-07-02T02:38:42;97534.97;;;16.89;97.27
70445;BME280;57902;49.638;11.070;2023-07-02T02:41:08;97530.75;;;16.87;97.15
70445;BME280;57902;49.638;11.070;2023-07-02T02:43:35;97532.53;;;16.86;96.45
70445;BME280;57902;49.638;11.070;2023-07-02T02:46:01;97537.31;;;16.79;97.45
70445;BME280;57902;49.638;11.070;2023-07-02T02:48:28;97524.41;;;16.78;97.10
70445;BME280;57902;49.638;11.070;2023-07-02T02:50:55;97538.47;;;16.75;97.24
70445;BME280;57902;49.638;11.070;2023-07-02T02:53:21;97532.63;;;16.72;98.16
70445;BME280;57902;49.638;11.070;2023-07-02T02:55:48;97539.31;;;16.76;96.47
70445;BME280;57902;49.638;11.070;2023-07-02T02:58:14;97546.69;;;16.82;95.31
70445;BME280;57902;49.638;11.070;2023-07-02T03:00:41;97540.34;;;16.86;95.10
70445;BME280;57902;49.638;11.070;2023-07-02T03:03:12;97533.78;;;16.80;96.57
70445;BME280;57902;49.638;11.070;2023-07-02T03:05:40;97532.31;;;16.76;96.04
70445;BME280;57902;49.638;11.070;2023-07-02T03:08:06;97539.00;;;16.80;95.43
70445;BME280;57902;49.638;11.070;2023-07-02T03:10:33;97542.06;;;16.87;94.29
70445;BME280;57902;49.638;11.070;2023-07-02T03:12:59;97541.50;;;16.82;94.61
70445;BME280;57902;49.638;11.070;2023-07-02T03:15:26;97547.94;;;16.76;95.46
70445;BME280;57902;49.638;11.070;2023-07-02T03:17:52;97555.03;;;16.74;95.16
70445;BME280;57902;49.638;11.070;2023-07-02T03:20:19;97555.94;;;16.73;95.31
70445;BME280;57902;49.638;11.070;2023-07-02T03:22:46;97559.41;;;16.74;95.09
70445;BME280;57902;49.638;11.070;2023-07-02T03:25:12;97559.50;;;16.72;94.72
70445;BME280;57902;49.638;11.070;2023-07-02T03:27:39;97558.25;;;16.78;93.33
70445;BME280;57902;49.638;11.070;2023-07-02T03:30:06;97560.94;;;16.76;93.60
70445;BME280;57902;49.638;11.070;2023-07-02T03:32:33;97562.28;;;16.69;94.05
70445;BME280;57902;49.638;11.070;2023-07-02T03:34:59;97571.97;;;16.67;95.25
70445;BME280;57902;49.638;11.070;2023-07-02T03:37:25;97566.06;;;16.78;92.74
70445;BME280;57902;49.638;11.070;2023-07-02T03:39:52;97571.47;;;16.75;92.79
70445;BME280;57902;49.638;11.070;2023-07-02T03:42:18;97581.28;;;16.84;92.05
70445;BME280;57902;49.638;11.070;2023-07-02T03:44:45;97569.00;;;16.86;92.39
70445;BME280;57902;49.638;11.070;2023-07-02T03:47:11;97577.28;;;16.93;90.98
70445;BME280;57902;49.638;11.070;2023-07-02T03:49:39;97574.03;;;16.89;91.79
70445;BME280;57902;49.638;11.070;2023-07-02T03:52:06;97579.97;;;16.91;91.12
70445;BME280;57902;49.638;11.070;2023-07-02T03:54:32;97587.22;;;16.86;91.27
70445;BME280;57902;49.638;11.070;2023-07-02T03:56:59;97585.09;;;16.93;91.23
70445;BME280;57902;49.638;11.070;2023-07-02T03:59:25;97594.97;;;17.01;90.36
70445;BME280;57902;49.638;11.070;2023-07-02T04:01:52;97602.16;;;17.10;90.55
70445;BME280;57902;49.638;11.070;2023-07-02T04:04:18;97601.97;;;17.26;89.07
70445;BME280;57902;49.638;11.070;2023-07-02T04:06:45;97606.53;;;17.35;89.67
70445;BME280;57902;49.638;11.070;2023-07-02T04:09:13;97606.31;;;17.51;88.46
70445;BME280;57902;49.638;11.070;2023-07-02T04:11:39;97605.19;;;17.55;86.25
70445;BME280;57902;49.638;11.070;2023-07-02T04:14:06;97614.81;;;18.05;83.56
70445;BME280;57902;49.638;11.070;2023-07-02T04:16:32;97606.91;;;18.30;79.96
70445;BME280;57902;49.638;11.070;2023-07-02T04:18:59;97615.47;;;18.32;79.74
70445;BME280;57902;49.638;11.070;2023-07-02T04:21:26;97617.06;;;18.22;80.02
70445;BME280;57902;49.638;11.070;2023-07-02T04:23:53;97620.66;;;18.08;78.72
70445;BME280;57902;49.638;11.070;2023-07-02T04:26:20;97628.44;;;18.21;77.05
70445;BME280;57902;49.638;11.070;2023-07-02T04:29:06;97633.81;;;17.94;76.89
70445;BME280;57902;49.638;11.070;2023-07-02T04:31:33;97626.53;;;17.73;78.34
70445;BME280;57902;49.638;11.070;2023-07-02T04:34:00;97630.00;;;17.48;79.89
70445;BME280;57902;49.638;11.070;2023-07-02T04:36:26;97630.63;;;17.39;81.02
70445;BME280;57902;49.638;11.070;2023-07-02T04:38:54;97630.84;;;17.36;80.20
70445;BME280;57902;49.638;11.070;2023-07-02T04:41:21;97638.00;;;17.32;79.83
70445;BME280;57902;49.638;11.070;2023-07-02T04:43:47;97635.94;;;17.24;79.47
70445;BME280;57902;49.638;11.070;2023-07-02T04:46:14;97652.19;;;17.15;81.32
70445;BME280;57902;49.638;11.070;2023-07-02T04:48:41;97643.19;;;17.19;80.97
70445;BME280;57902;49.638;11.070;2023-07-02T04:51:08;97640.72;;;17.30;77.62
70445;BME280;57902;49.638;11.070;2023-07-02T04:53:35;97644.88;;;17.20;78.44
70445;BME280;57902;49.638;11.070;2023-07-02T04:56:01;97648.22;;;17.22;78.61
70445;BME280;57902;49.638;11.070;2023-07-02T04:58:28;97654.50;;;17.33;77.12
70445;BME280;57902;49.638;11.070;2023-07-02T05:00:54;97653.53;;;17.46;76.66
70445;BME280;57902;49.638;11.070;2023-07-02T05:03:21;97658.75;;;17.59;74.57
70445;BME280;57902;49.638;11.070;2023-07-02T05:05:48;97665.63;;;17.86;72.94
70445;BME280;57902;49.638;11.070;2023-07-02T05:08:14;97664.09;;;18.82;72.44
70445;BME280;57902;49.638;11.070;2023-07-02T05:10:41;97666.03;;;20.07;65.47
70445;BME280;57902;49.638;11.070;2023-07-02T05:13:07;97659.06;;;20.40;64.09
70445;BME280;57902;49.638;11.070;2023-07-02T05:15:34;97669.25;;;20.55;60.41
70445;BME280;57902;49.638;11.070;2023-07-02T05:18:00;97663.72;;;20.25;62.11
70445;BME280;57902;49.638;11.070;2023-07-02T05:20:27;97665.84;;;20.32;61.79
70445;BME280;57902;49.638;11.070;2023-07-02T05:22:53;97674.44;;;20.34;61.56
70445;BME280;57902;49.638;11.070;2023-07-02T05:25:20;97677.91;;;19.89;62.74
70445;BME280;57902;49.638;11.070;2023-07-02T05:27:46;97685.13;;;19.51;64.71
70445;BME280;57902;49.638;11.070;2023-07-02T05:30:14;97677.47;;;19.48;66.07
70445;BME280;57902;49.638;11.070;2023-07-02T05:32:42;97684.94;;;19.30;67.03
70445;BME280;57902;49.638;11.070;2023-07-02T05:35:09;97682.97;;;19.10;67.70
70445;BME280;57902;49.638;11.070;2023-07-02T05:37:35;97685.13;;;19.16;66.76
70445;BME280;57902;49.638;11.070;2023-07-02T05:40:02;97681.88;;;19.01;69.08
70445;BME280;57902;49.638;11.070;2023-07-02T05:42:29;97688.94;;;19.12;67.29
70445;BME280;57902;49.638;11.070;2023-07-02T05:44:55;97680.59;;;19.06;65.63
70445;BME280;57902;49.638;11.070;2023-07-02T05:47:22;97681.75;;;18.91;67.62
70445;BME280;57902;49.638;11.070;2023-07-02T05:49:48;97686.75;;;18.81;66.76
70445;BME280;57902;49.638;11.070;2023-07-02T05:52:15;97679.75;;;18.82;67.02
70445;BME280;57902;49.638;11.070;2023-07-02T05:54:41;97685.28;;;18.90;68.83
70445;BME280;57902;49.638;11.070;2023-07-02T05:57:08;97684.31;;;19.15;65.45
70445;BME280;57902;49.638;11.070;2023-07-02T05:59:34;97689.34;;;18.94;64.94
70445;BME280;57902;49.638;11.070;2023-07-02T06:02:01;97695.75;;;18.77;63.38
70445;BME280;57902;49.638;11.070;2023-07-02T06:04:27;97698.59;;;18.74;63.56
70445;BME280;57902;49.638;11.070;2023-07-02T06:06:54;97705.09;;;18.68;63.29
70445;BME280;57902;49.638;11.070;2023-07-02T06:09:21;97704.44;;;19.02;63.10
70445;BME280;57902;49.638;11.070;2023-07-02T06:11:47;97703.78;;;19.69;61.62
70445;BME280;57902;49.638;11.070;2023-07-02T06:14:16;97698.25;;;20.08;58.67
70445;BME280;57902;49.638;11.070;2023-07-02T06:16:42;97694.34;;;19.91;58.40
70445;BME280;57902;49.638;11.070;2023-07-02T06:19:09;97691.19;;;19.63;58.36
70445;BME280;57902;49.638;11.070;2023-07-02T06:21:36;97700.94;;;19.72;59.54
70445;BME280;57902;49.638;11.070;2023-07-02T06:24:03;97699.56;;;19.80;60.25
70445;BME280;57902;49.638;11.070;2023-07-02T06:26:29;97700.28;;;19.93;59.57
70445;BME280;57902;49.638;11.070;2023-07-02T06:28:57;97704.31;;;19.86;60.27
70445;BME280;57902;49.638;11.070;2023-07-02T06:31:24;97708.66;;;19.63;60.67
70445;BME280;57902;49.638;11.070;2023-07-02T06:33:52;97720.88;;;19.51;60.73
70445;BME280;57902;49.638;11.070;2023-07-02T06:36:19;97725.53;;;19.23;61.85
70445;BME280;57902;49.638;11.070;2023-07-02T06:38:46;97717.38;;;19.39;60.02
70445;BME280;57902;49.638;11.070;2023-07-02T06:41:12;97719.88;;;19.40;58.99
70445;BME280;57902;49.638;11.070;2023-07-02T06:43:41;97726.78;;;19.41;58.63
70445;BME280;57902;49.638;11.070;2023-07-02T06:46:10;97719.94;;;19.74;56.83
70445;BME280;57902;49.638;11.070;2023-07-02T06:48:36;97712.16;;;19.86;57.14
70445;BME280;57902;49.638;11.070;2023-07-02T06:51:03;97720.00;;;20.20;52.79
70445;BME280;57902;49.638;11.070;2023-07-02T06:53:29;97718.69;;;20.92;49.06
70445;BME280;57902;49.638;11.070;2023-07-02T06:55:56;97715.59;;;21.52;48.58
70445;BME280;57902;49.638;11.070;2023-07-02T06:58:22;97715.28;;;21.97;47.06
70445;BME280;57902;49.638;11.070;2023-07-02T07:00:49;97705.69;;;22.58;47.60
70445;BME280;57902;49.638;11.070;2023-07-02T07:03:16;97710.63;;;23.11;45.21
70445;BME280;57902;49.638;11.070;2023-07-02T07:05:42;97721.66;;;23.54;44.45
70445;BME280;57902;49.638;11.070;2023-07-02T07:08:09;97723.16;;;23.56;43.92
70445;BME280;57902;49.638;11.070;2023-07-02T07:10:36;97722.50;;;23.35;44.39
70445;BME280;57902;49.638;11.070;2023-07-02T07:13:02;97717.78;;;23.09;44.78
70445;BME280;57902;49.638;11.070;2023-07-02T07:15:32;97719.38;;;22.51;46.34
70445;BME280;57902;49.638;11.070;2023-07-02T07:17:59;97715.94;;;22.20;47.18
70445;BME280;57902;49.638;11.070;2023-07-02T07:20:26;97703.72;;;22.09;50.68
70445;BME280;57902;49.638;11.070;2023-07-02T07:22:52;97714.22;;;22.40;46.37
70445;BME280;57902;49.638;11.070;2023-07-02T07:25:19;97706.13;;;22.63;45.76
70445;BME280;57902;49.638;11.070;2023-07-02T07:27:45;97707.91;;;22.52;46.92
70445;BME280;57902;49.638;11.070;2023-07-02T07:30:12;97716.31;;;22.36;46.78
70445;BME280;57902;49.638;11.070;2023-07-02T07:32:41;97720.97;;;22.33;46.12
70445;BME280;57902;49.638;11.070;2023-07-02T07:35:07;97722.31;;;22.68;45.43
70445;BME280;57902;49.638;11.070;2023-07-02T07:37:34;97721.63;;;22.85;44.21
70445;BME280;57902;49.638;11.070;2023-07-02T07:40:01;97715.44;;;22.86;43.61
70445;BME280;57902;49.638;11.070;2023-07-02T07:42:27;97717.47;;;22.63;43.28
70445;BME280;57902;49.638;11.070;2023-07-02T07:44:54;97723.66;;;22.12;44.39
70445;BME280;57902;49.638;11.070;2023-07-02T07:47:20;97732.50;;;21.59;45.73
70445;BME280;57902;49.638;11.070;2023-07-02T07:49:47;97735.50;;;21.22;46.82
70445;BME280;57902;49.638;11.070;2023-07-02T07:52:13;97729.00;;;20.72;48.71
70445;BME280;57902;49.638;11.070;2023-07-02T07:54:40;97727.69;;;20.55;49.54
70445;BME280;57902;49.638;11.070;2023-07-02T07:57:06;97733.75;;;21.11;49.74
70445;BME280;57902;49.638;11.070;2023-07-02T07:59:33;97730.97;;;22.39;45.30
70445;BME280;57902;49.638;11.070;2023-07-02T08:02:00;97728.03;;;23.51;44.19
70445;BME280;57902;49.638;11.070;2023-07-02T08:04:26;97718.25;;;24.01;40.47
70445;BME280;57902;49.638;11.070;2023-07-02T08:06:53;97716.13;;;24.04;40.68
70445;BME280;57902;49.638;11.070;2023-07-02T08:09:20;97728.25;;;24.53;40.03
70445;BME280;57902;49.638;11.070;2023-07-02T08:11:47;97725.09;;;24.49;39.02
70445;BME280;57902;49.638;11.070;2023-07-02T08:14:14;97726.66;;;24.04;39.58
70445;BME280;57902;49.638;11.070;2023-07-02T08:16:40;97735.94;;;23.12;41.19
70445;BME280;57902;49.638;11.070;2023-07-02T08:19:07;97741.84;;;22.34;43.26
70445;BME280;57902;49.638;11.070;2023-07-02T08:21:41;97732.84;;;21.75;46.56
70445;BME280;57902;49.638;11.070;2023-07-02T08:24:07;97732.94;;;22.26;47.12
70445;BME280;57902;49.638;11.070;2023-07-02T08:26:34;97734.88;;;22.54;45.66
70445;BME280;57902;49.638;11.070;2023-07-02T08:29:00;97737.16;;;22.98;44.42
70445;BME280;57902;49.638;11.070;2023-07-02T08:31:27;97735.31;;;23.77;42.91
70445;BME280;57902;49.638;11.070;2023-07-02T08:33:53;97734.69;;;24.40;41.06
70445;BME280;57902;49.638;11.070;2023-07-02T08:36:20;97725.69;;;24.89;39.70
70445;BME280;57902;49.638;11.070;2023-07-02T08:38:46;97735.09;;;24.73;39.26
70445;BME280;57902;49.638;11.070;2023-07-02T08:41:13;97739.38;;;24.09;39.97
70445;BME280;57902;49.638;11.070;2023-07-02T08:43:40;97743.22;;;23.67;40.72
70445;BME280;57902;49.638;11.070;2023-07-02T08:46:06;97741.34;;;24.07;43.66
70445;BME280;57902;49.638;11.070;2023-07-02T08:48:34;97736.00;;;24.54;41.10
70445;BME280;57902;49.638;11.070;2023-07-02T08:51:02;97735.22;;;24.72;38.82
70445;BME280;57902;49.638;11.070;2023-07-02T08:53:29;97743.59;;;24.57;38.16
70445;BME280;57902;49.638;11.070;2023-07-02T08:56:00;97754.25;;;24.00;40.64
70445;BME280;57902;49.638;11.070;2023-07-02T08:58:28;97743.13;;;24.06;39.55
70445;BME280;57902;49.638;11.070;2023-07-02T09:01:12;97734.38;;;24.16;41.75
70445;BME280;57902;49.638;11.070;2023-07-02T09:03:40;97742.06;;;24.65;41.77
70445;BME280;57902;49.638;11.070;2023-07-02T09:06:09;97747.16;;;24.94;39.52
70445;BME280;57902;49.638;11.070;2023-07-02T09:08:37;97751.16;;;25.16;38.38
70445;BME280;57902;49.638;11.070;2023-07-02T09:11:13;97749.22;;;25.18;40.14
70445;BME280;57902;49.638;11.070;2023-07-02T09:13:51;97752.75;;;25.27;40.44
70445;BME280;57902;49.638;11.070;2023-07-02T09:16:26;97745.56;;;25.19;39.21
70445;BME280;57902;49.638;11.070;2023-07-02T09:19:03;97750.69;;;25.03;38.80
70445;BME280;57902;49.638;11.070;2023-07-02T09:21:45;97754.22;;;25.29;37.73
70445;BME280;57902;49.638;11.070;2023-07-02T09:24:16;97750.66;;;25.30;37.96
70445;BME280;57902;49.638;11.070;2023-07-02T09:26:47;97750.22;;;25.25;38.43
70445;BME280;57902;49.638;11.070;2023-07-02T09:29:24;97741.88;;;25.12;38.39
70445;BME280;57902;49.638;11.070;2023-07-02T09:31:51;97743.91;;;25.00;39.05
70445;BME280;57902;49.638;11.070;2023-07-02T09:34:37;97744.50;;;24.76;39.11
70445;BME280;57902;49.638;11.070;2023-07-02T09:37:04;97746.84;;;24.51;39.52
70445;BME280;57902;49.638;11.070;2023-07-02T09:39:34;97746.94;;;23.94;41.30
70445;BME280;57902;49.638;11.070;2023-07-02T09:42:05;97754.13;;;23.82;41.78
70445;BME280;57902;49.638;11.070;2023-07-02T09:44:33;97745.41;;;24.29;40.94
70445;BME280;57902;49.638;11.070;2023-07-02T09:47:07;97742.50;;;24.32;43.24
70445;BME280;57902;49.638;11.070;2023-07-02T09:49:38;97742.53;;;24.22;39.91
70445;BME280;57902;49.638;11.070;2023-07-02T09:52:08;97744.19;;;24.23;41.39
70445;BME280;57902;49.638;11.070;2023-07-02T09:54:35;97743.88;;;24.36;40.27
70445;BME280;57902;49.638;11.070;2023-07-02T09:57:03;97738.28;;;24.39;40.36
70445;BME280;57902;49.638;11.070;2023-07-02T09:59:30;97740.00;;;24.58;40.75
70445;BME280;57902;49.638;11.070;2023-07-02T10:01:57;97739.28;;;24.84;39.83
70445;BME280;57902;49.638;11.070;2023-07-02T10:04:24;97741.50;;;25.07;38.72
70445;BME280;57902;49.638;11.070;2023-07-02T10:06:53;97740.16;;;25.03;37.63
70445;BME280;57902;49.638;11.070;2023-07-02T10:09:21;97744.06;;;24.80;38.14
70445;BME280;57902;49.638;11.070;2023-07-02T10:12:00;97744.88;;;24.81;38.60
70445;BME280;57902;49.638;11.070;2023-07-02T10:14:26;97744.34;;;24.50;39.32
70445;BME280;57902;49.638;11.070;2023-07-02T10:16:54;97745.66;;;24.36;39.54
70445;BME280;57902;49.638;11.070;2023-07-02T10:19:21;97751.44;;;24.49;39.54
70445;BME280;57902;49.638;11.070;2023-07-02T10:22:04;97749.94;;;24.37;40.13
70445;BME280;57902;49.638;11.070;2023-07-02T10:24:30;97762.38;;;24.17;40.80
70445;BME280;57902;49.638;11.070;2023-07-02T10:26:59;97766.75;;;23.98;40.98
70445;BME280;57902;49.638;11.070;2023-07-02T10:29:27;97775.91;;;23.55;43.25
70445;BME280;57902;49.638;11.070;2023-07-02T10:31:56;97774.56;;;23.51;42.64
70445;BME280;57902;49.638;11.070;2023-07-02T10:34:32;97778.25;;;23.09;43.19
70445;BME280;57902;49.638;11.070;2023-07-02T10:37:03;97781.13;;;22.96;44.38
70445;BME280;57902;49.638;11.070;2023-07-02T10:39:31;97787.78;;;23.00;45.03
70445;BME280;57902;49.638;11.070;2023-07-02T10:42:09;97783.63;;;23.07;44.38
70445;BME280;57902;49.638;11.070;2023-07-02T10:44:56;97782.72;;;23.28;45.07
70445;BME280;57902;49.638;11.070;2023-07-02T10:47:22;97768.44;;;23.70;42.11
70445;BME280;57902;49.638;11.070;2023-07-02T10:49:49;97781.44;;;23.91;41.04
70445;BME280;57902;49.638;11.070;2023-07-02T10:52:15;97790.88;;;23.93;41.29
70445;BME280;57902;49.638;11.070;2023-07-02T10:54:43;97790.81;;;24.03;41.76
70445;BME280;57902;49.638;11.070;2023-07-02T10:57:13;97793.88;;;23.99;42.60
70445;BME280;57902;49.638;11.070;2023-07-02T10:59:42;97789.41;;;24.19;40.36
70445;BME280;57902;49.638;11.070;2023-07-02T11:02:08;97785.25;;;24.06;39.51
70445;BME280;57902;49.638;11.070;2023-07-02T11:04:39;97787.06;;;24.06;40.63
70445;BME280;57902;49.638;11.070;2023-07-02T11:07:06;97774.88;;;24.05;39.57
70445;BME280;57902;49.638;11.070;2023-07-02T11:09:33;97786.13;;;24.07;39.72
70445;BME280;57902;49.638;11.070;2023-07-02T11:12:00;97783.03;;;24.11;40.25
70445;BME280;57902;49.638;11.070;2023-07-02T11:14:31;97776.25;;;24.09;39.19
70445;BME280;57902;49.638;11.070;2023-07-02T11:16:59;97789.88;;;23.94;38.19
70445;BME280;57902;49.638;11.070;2023-07-02T11:19:29;97786.81;;;23.80;38.29
70445;BME280;57902;49.638;11.070;2023-07-02T11:21:57;97780.59;;;23.81;37.48
70445;BME280;57902;49.638;11.070;2023-07-02T11:26:53;97781.13;;;23.84;39.31
70445;BME280;57902;49.638;11.070;2023-07-02T11:29:20;97780.91;;;23.87;39.66
70445;BME280;57902;49.638;11.070;2023-07-02T11:31:46;97777.78;;;24.02;39.14
70445;BME280;57902;49.638;11.070;2023-07-02T11:34:14;97772.94;;;24.07;38.25
70445;BME280;57902;49.638;11.070;2023-07-02T11:36:44;97778.59;;;24.12;39.44
70445;BME280;57902;49.638;11.070;2023-07-02T11:39:11;97760.00;;;24.23;38.33
70445;BME280;57902;49.638;11.070;2023-07-02T11:41:39;97764.00;;;24.55;37.75
70445;BME280;57902;49.638;11.070;2023-07-02T11:44:06;97761.81;;;24.51;36.65
70445;BME280;57902;49.638;11.070;2023-07-02T11:46:33;97765.72;;;24.46;37.12
70445;BME280;57902;49.638;11.070;2023-07-02T11:49:00;97754.13;;;24.57;37.00
70445;BME280;57902;49.638;11.070;2023-07-02T11:51:28;97767.81;;;24.71;36.19
70445;BME280;57902;49.638;11.070;2023-07-02T11:53:54;97750.00;;;24.83;36.75
70445;BME280;57902;49.638;11.070;2023-07-02T11:56:21;97759.88;;;24.98;35.46
70445;BME280;57902;49.638;11.070;2023-07-02T11:58:47;97759.16;;;24.60;37.58
70445;BME280;57902;49.638;11.070;2023-07-02T12:01:14;97762.22;;;25.02;35.64
70445;BME280;57902;49.638;11.070;2023-07-02T12:03:40;97763.06;;;25.20;36.38
70445;BME280;57902;49.638;11.070;2023-07-02T12:06:07;97768.94;;;25.14;35.39
70445;BME280;57902;49.638;11.070;2023-07-02T12:08:33;97771.06;;;25.28;35.33
70445;BME280;57902;49.638;11.070;2023-07-02T12:11:00;97768.59;;;25.45;34.73
70445;BME280;57902;49.638;11.070;2023-07-02T12:13:26;97765.56;;;25.40;34.22
70445;BME280;57902;49.638;11.070;2023-07-02T12:15:53;97771.06;;;25.46;35.25
70445;BME280;57902;49.638;11.070;2023-07-02T12:18:22;97759.63;;;25.38;34.89
70445;BME280;57902;49.638;11.070;2023-07-02T12:20:48;97759.16;;;25.24;34.46
70445;BME280;57902;49.638;11.070;2023-07-02T12:23:15;97757.78;;;25.20;33.74
70445;BME280;57902;49.638;11.070;2023-07-02T12:25:42;97756.13;;;25.01;35.50
70445;BME280;57902;49.638;11.070;2023-07-02T12:28:09;97755.06;;;25.12;35.14
70445;BME280;57902;49.638;11.070;2023-07-02T12:30:38;97753.28;;;25.30;33.82
70445;BME280;57902;49.638;11.070;2023-07-02T12:33:05;97755.38;;;25.45;33.57
70445;BME280;57902;49.638;11.070;2023-07-02T12:35:32;97749.56;;;25.23;35.12
70445;BME280;57902;49.638;11.070;2023-07-02T12:37:58;97748.50;;;25.16;34.42
70445;BME280;57902;49.638;11.070;2023-07-02T12:40:24;97747.53;;;25.17;33.90
70445;BME280;57902;49.638;11.070;2023-07-02T12:42:51;97745.28;;;24.86;34.10
70445;BME280;57902;49.638;11.070;2023-07-02T12:45:18;97741.72;;;24.77;35.90
70445;BME280;57902;49.638;11.070;2023-07-02T12:47:47;97742.78;;;24.85;34.06
70445;BME280;57902;49.638;11.070;2023-07-02T12:50:14;97749.69;;;24.68;34.35
70445;BME280;57902;49.638;11.070;2023-07-02T12:52:40;97751.19;;;24.70;34.21
70445;BME280;57902;49.638;11.070;2023-07-02T12:55:08;97750.53;;;24.58;35.17
70445;BME280;57902;49.638;11.070;2023-07-02T12:57:34;97748.94;;;24.75;34.88